createdAt,value
2018-05-31T00:00:46.942Z,99.90
2018-05-31T00:03:50.098Z,99.90
2018-05-31T00:06:53.186Z,99.90
2018-05-31T00:09:56.254Z,99.90
2018-05-31T00:13:00.119Z,99.90
2018-05-31T00:16:03.184Z,99.90
2018-05-31T00:19:06.279Z,99.90
2018-05-31T00:22:09.351Z,99.90
2018-05-31T00:25:12.445Z,99.90
2018-05-31T00:28:15.509Z,99.90
2018-05-31T00:31:19.492Z,99.90
2018-05-31T00:34:22.588Z,99.90
2018-05-31T00:37:25.659Z,99.90
2018-05-31T00:40:28.788Z,99.90
2018-05-31T00:43:32.630Z,99.90
2018-05-31T00:46:35.727Z,99.90
2018-05-31T00:49:38.798Z,99.90
2018-05-31T00:52:41.886Z,99.90
2018-05-31T00:55:56.747Z,99.90
2018-05-31T00:58:59.834Z,99.90
2018-05-31T01:02:02.905Z,99.90
2018-05-31T01:05:06.777Z,99.90
2018-05-31T01:08:09.843Z,99.90
2018-05-31T01:11:12.934Z,99.90
2018-05-31T01:14:16.010Z,99.90
2018-05-31T01:17:19.101Z,99.90
2018-05-31T01:20:22.162Z,99.90
2018-05-31T01:23:26.029Z,99.90
2018-05-31T01:26:29.096Z,99.90
2018-05-31T01:29:32.187Z,99.90
2018-05-31T01:32:35.256Z,99.90
2018-05-31T01:35:38.366Z,99.90
2018-05-31T01:38:41.439Z,99.90
2018-05-31T01:41:44.527Z,99.90
2018-05-31T01:44:47.593Z,99.90
2018-05-31T01:47:51.450Z,99.90
2018-05-31T01:50:54.518Z,99.90
2018-05-31T01:53:57.626Z,99.90
2018-05-31T01:57:00.863Z,99.90
2018-05-31T02:00:03.951Z,99.90
2018-05-31T02:03:07.023Z,99.90
2018-05-31T02:06:10.114Z,99.90
2018-05-31T02:09:13.191Z,99.90
2018-05-31T02:12:16.288Z,99.90
2018-05-31T02:15:19.381Z,99.90
2018-05-31T02:18:22.678Z,99.90
2018-05-31T02:21:25.857Z,99.90
2018-05-31T02:24:28.960Z,99.90
2018-05-31T02:27:32.061Z,99.90
2018-05-31T02:30:35.156Z,99.90
2018-05-31T02:33:38.252Z,99.90
2018-05-31T02:36:41.332Z,99.90
2018-05-31T02:39:44.532Z,99.90
2018-05-31T02:42:48.395Z,99.90
2018-05-31T02:45:51.479Z,99.90
2018-05-31T02:48:54.637Z,99.90
2018-05-31T02:51:57.694Z,99.90
2018-05-31T02:55:00.803Z,99.90
2018-05-31T02:58:04.678Z,99.90
2018-05-31T03:01:07.779Z,99.90
2018-05-31T03:04:10.852Z,99.90
2018-05-31T03:07:13.947Z,99.90
2018-05-31T03:10:17.143Z,99.90
2018-05-31T03:13:20.216Z,99.90
2018-05-31T03:16:23.323Z,99.90
2018-05-31T03:19:26.434Z,99.90
2018-05-31T03:22:29.517Z,99.90
2018-05-31T03:25:32.687Z,99.90
2018-05-31T03:28:35.829Z,99.90
2018-05-31T03:31:38.908Z,99.90
2018-05-31T03:34:42.767Z,99.90
2018-05-31T03:37:45.843Z,99.90
2018-05-31T03:40:49.005Z,99.90
2018-05-31T03:43:52.087Z,99.90
2018-05-31T03:46:56.003Z,99.90
2018-05-31T03:49:59.092Z,99.90
2018-05-31T03:53:02.184Z,99.90
2018-05-31T03:56:06.011Z,99.90
2018-05-31T03:59:09.102Z,99.90
2018-05-31T04:02:12.174Z,99.90
2018-05-31T04:05:15.279Z,99.90
2018-05-31T04:08:18.387Z,99.90
2018-05-31T04:11:21.463Z,99.90
2018-05-31T04:14:24.566Z,99.90
2018-05-31T04:17:27.648Z,99.90
2018-05-31T04:20:30.753Z,99.90
2018-05-31T04:23:33.832Z,99.90
2018-05-31T04:26:36.938Z,99.90
2018-05-31T04:29:40.041Z,99.90
2018-05-31T04:32:43.115Z,99.90
2018-05-31T04:35:46.219Z,99.90
2018-05-31T04:38:49.323Z,99.90
2018-05-31T04:41:52.394Z,99.90
2018-05-31T04:44:55.688Z,99.90
2018-05-31T04:47:58.766Z,99.90
2018-05-31T04:51:01.858Z,99.90
2018-05-31T04:54:04.926Z,99.50
2018-05-31T04:57:08.026Z,99.80
2018-05-31T05:00:11.229Z,99.80
2018-05-31T05:03:14.299Z,99.40
2018-05-31T05:06:17.405Z,99.20
2018-05-31T05:09:20.509Z,99.30
2018-05-31T05:12:23.640Z,99.60
2018-05-31T05:15:26.727Z,99.30
2018-05-31T05:18:30.575Z,98.80
2018-05-31T05:21:33.679Z,98.80
2018-05-31T05:24:36.778Z,98.00
2018-05-31T05:27:39.887Z,98.20
2018-05-31T05:30:42.968Z,96.70
2018-05-31T05:33:46.068Z,97.10
2018-05-31T05:36:49.178Z,97.50
2018-05-31T05:39:53.072Z,95.50
2018-05-31T05:42:56.133Z,95.40
2018-05-31T05:45:59.260Z,95.20
2018-05-31T05:49:02.323Z,97.20
2018-05-31T05:52:05.413Z,96.30
2018-05-31T05:55:08.837Z,95.80
2018-05-31T05:58:12.707Z,94.80
2018-05-31T06:01:15.788Z,94.80
2018-05-31T06:04:19.035Z,95.20
2018-05-31T06:07:22.059Z,94.70
2018-05-31T06:10:25.152Z,94.10
2018-05-31T06:13:29.219Z,94.20
2018-05-31T06:16:33.077Z,93.60
2018-05-31T06:19:36.164Z,93.50
2018-05-31T06:22:39.281Z,93.70
2018-05-31T06:25:42.373Z,92.60
2018-05-31T06:28:45.508Z,92.30
2018-05-31T06:31:48.580Z,91.80
2018-05-31T06:34:51.692Z,91.80
2018-05-31T06:37:54.770Z,91.60
2018-05-31T06:40:57.859Z,91.10
2018-05-31T06:44:00.970Z,90.10
2018-05-31T06:47:04.031Z,86.70
2018-05-31T06:50:07.141Z,86.00
2018-05-31T06:53:10.229Z,86.00
2018-05-31T06:56:13.320Z,88.90
2018-05-31T06:59:16.485Z,90.30
2018-05-31T07:02:19.561Z,87.20
2018-05-31T07:05:23.395Z,87.70
2018-05-31T07:08:26.501Z,88.20
2018-05-31T07:11:29.596Z,86.80
2018-05-31T07:14:32.671Z,86.00
2018-05-31T07:17:35.773Z,82.60
2018-05-31T07:20:38.928Z,83.10
2018-05-31T07:23:41.998Z,81.60
2018-05-31T07:26:45.082Z,79.50
2018-05-31T07:29:48.167Z,79.30
2018-05-31T07:32:51.239Z,79.80
2018-05-31T07:35:54.335Z,79.50
2018-05-31T07:38:57.434Z,79.80
2018-05-31T07:42:00.511Z,80.60
2018-05-31T07:45:03.592Z,78.90
2018-05-31T07:48:06.792Z,79.70
2018-05-31T07:51:09.940Z,79.20
2018-05-31T07:54:13.117Z,79.00
2018-05-31T07:57:16.195Z,78.70
2018-05-31T08:00:20.428Z,76.60
2018-05-31T08:03:24.258Z,75.60
2018-05-31T08:06:27.365Z,75.20
2018-05-31T08:09:30.457Z,75.40
2018-05-31T08:12:33.544Z,74.10
2018-05-31T08:15:36.687Z,74.10
2018-05-31T08:18:39.762Z,73.20
2018-05-31T08:21:42.928Z,73.40
2018-05-31T08:24:46.320Z,73.20
2018-05-31T08:27:49.392Z,75.50
2018-05-31T08:30:52.568Z,73.50
2018-05-31T08:33:56.458Z,74.00
2018-05-31T08:36:59.700Z,73.90
2018-05-31T08:40:02.781Z,76.00
2018-05-31T08:43:05.926Z,74.10
2018-05-31T08:46:09.017Z,74.80
2018-05-31T08:49:12.859Z,74.60
2018-05-31T08:52:15.958Z,74.60
2018-05-31T08:55:19.038Z,73.40
2018-05-31T08:58:22.132Z,73.60
2018-05-31T09:01:25.212Z,74.10
2018-05-31T09:04:28.311Z,75.40
2018-05-31T09:07:31.396Z,74.10
2018-05-31T09:10:34.493Z,75.20
2018-05-31T09:13:37.575Z,74.20
2018-05-31T09:16:40.661Z,73.40
2018-05-31T09:19:43.775Z,74.00
2018-05-31T09:22:46.918Z,73.90
2018-05-31T09:25:50.024Z,74.70
2018-05-31T09:28:53.096Z,72.50
2018-05-31T09:31:56.253Z,74.80
2018-05-31T09:34:59.495Z,75.30
2018-05-31T09:38:03.377Z,72.00
2018-05-31T09:41:06.495Z,71.80
2018-05-31T09:44:09.544Z,72.80
2018-05-31T09:47:13.405Z,70.80
2018-05-31T09:50:16.507Z,70.80
2018-05-31T09:53:19.582Z,71.00
2018-05-31T09:56:22.784Z,72.60
2018-05-31T09:59:25.879Z,72.20
2018-05-31T10:02:28.977Z,72.20
2018-05-31T10:05:32.075Z,72.10
2018-05-31T10:08:35.181Z,70.10
2018-05-31T10:11:38.272Z,69.90
2018-05-31T10:14:41.425Z,70.80
2018-05-31T10:17:44.504Z,72.40
2018-05-31T10:20:47.606Z,72.20
2018-05-31T10:23:50.808Z,70.30
2018-05-31T10:26:53.898Z,71.30
2018-05-31T10:29:56.977Z,71.20
2018-05-31T10:33:00.084Z,71.40
2018-05-31T10:36:03.149Z,71.20
2018-05-31T10:39:06.252Z,69.70
2018-05-31T10:42:09.323Z,70.30
2018-05-31T10:45:12.415Z,69.20
2018-05-31T10:48:15.573Z,69.30
2018-05-31T10:51:18.642Z,67.20
2018-05-31T10:54:22.519Z,66.80
2018-05-31T10:57:25.647Z,66.80
2018-05-31T11:00:29.093Z,66.90
2018-05-31T11:03:32.163Z,67.50
2018-05-31T11:06:35.245Z,65.10
2018-05-31T11:09:38.336Z,65.50
2018-05-31T11:12:41.466Z,64.40
2018-05-31T11:15:44.558Z,63.80
2018-05-31T11:18:47.634Z,63.10
2018-05-31T11:21:50.727Z,63.80
2018-05-31T11:24:53.825Z,64.70
2018-05-31T11:27:56.923Z,65.00
2018-05-31T11:31:00.033Z,67.20
2018-05-31T11:34:03.865Z,65.70
2018-05-31T11:37:06.982Z,65.60
2018-05-31T11:40:10.069Z,66.70
2018-05-31T11:43:13.159Z,67.70
2018-05-31T11:46:16.253Z,66.90
2018-05-31T11:49:19.340Z,67.30
2018-05-31T11:52:22.539Z,66.00
2018-05-31T11:55:25.599Z,66.40
2018-05-31T11:58:28.712Z,66.10
2018-05-31T12:01:31.783Z,66.80
2018-05-31T12:04:34.883Z,65.10
2018-05-31T12:07:38.649Z,66.30
2018-05-31T12:10:41.724Z,66.50
2018-05-31T12:13:44.819Z,65.90
2018-05-31T12:16:48.649Z,66.10
2018-05-31T12:19:51.756Z,66.00
2018-05-31T12:22:55.039Z,66.90
2018-05-31T12:25:58.855Z,66.60
2018-05-31T12:29:01.949Z,66.50
2018-05-31T12:32:05.039Z,67.60
2018-05-31T12:35:08.142Z,67.30
2018-05-31T12:38:11.285Z,67.00
2018-05-31T12:41:14.346Z,68.50
2018-05-31T12:44:17.447Z,66.90
2018-05-31T12:47:20.529Z,66.70
2018-05-31T12:50:23.677Z,67.60
2018-05-31T12:53:26.916Z,68.30
2018-05-31T12:56:30.024Z,66.70
2018-05-31T12:59:33.880Z,68.00
2018-05-31T13:02:36.956Z,67.90
2018-05-31T13:05:40.203Z,67.10
2018-05-31T13:08:43.947Z,66.40
2018-05-31T13:11:47.052Z,66.40
2018-05-31T13:14:50.162Z,66.20
2018-05-31T13:17:53.247Z,66.00
2018-05-31T13:20:56.342Z,65.50
2018-05-31T13:23:59.427Z,66.40
2018-05-31T13:27:02.531Z,64.60
2018-05-31T13:30:05.645Z,63.30
2018-05-31T13:33:08.743Z,64.10
2018-05-31T13:36:12.576Z,65.40
2018-05-31T13:39:15.686Z,66.10
2018-05-31T13:42:18.911Z,66.20
2018-05-31T13:45:22.833Z,65.80
2018-05-31T13:48:25.883Z,65.90
2018-05-31T13:51:29.010Z,63.20
2018-05-31T13:54:32.083Z,62.60
2018-05-31T13:57:35.171Z,62.50
2018-05-31T14:00:39.248Z,64.10
2018-05-31T14:03:42.324Z,62.60
2018-05-31T14:06:45.427Z,61.60
2018-05-31T14:09:48.497Z,63.10
2018-05-31T14:12:51.615Z,64.50
2018-05-31T14:15:54.700Z,63.40
2018-05-31T14:18:57.942Z,62.00
2018-05-31T14:22:01.038Z,62.80
2018-05-31T14:25:04.926Z,62.20
2018-05-31T14:28:09.170Z,63.40
2018-05-31T14:31:12.279Z,63.20
2018-05-31T14:34:15.372Z,63.20
2018-05-31T14:37:18.475Z,62.20
2018-05-31T14:40:21.552Z,63.30
2018-05-31T14:43:24.652Z,63.60
2018-05-31T14:46:27.752Z,62.40
2018-05-31T14:49:31.600Z,62.00
2018-05-31T14:52:35.455Z,61.20
2018-05-31T14:55:38.607Z,61.20
2018-05-31T14:58:41.714Z,61.80
2018-05-31T15:01:44.784Z,61.20
2018-05-31T15:04:47.885Z,62.60
2018-05-31T15:07:51.058Z,62.40
2018-05-31T15:10:54.143Z,62.10
2018-05-31T15:13:57.216Z,62.20
2018-05-31T15:17:00.325Z,62.20
2018-05-31T15:20:04.202Z,62.70
2018-05-31T15:23:07.324Z,62.70
2018-05-31T15:26:10.388Z,63.10
2018-05-31T15:29:13.708Z,63.20
2018-05-31T15:32:16.892Z,63.70
2018-05-31T15:35:20.760Z,64.60
2018-05-31T15:38:24.591Z,64.80
2018-05-31T15:41:27.698Z,64.70
2018-05-31T15:44:31.615Z,66.40
2018-05-31T15:47:34.700Z,66.40
2018-05-31T15:50:37.792Z,66.00
2018-05-31T15:53:41.699Z,65.90
2018-05-31T15:56:44.959Z,65.80
2018-05-31T15:59:48.080Z,66.30
2018-05-31T16:02:51.923Z,66.30
2018-05-31T16:05:55.083Z,66.30
2018-05-31T16:08:58.156Z,66.90
2018-05-31T16:12:01.287Z,66.30
2018-05-31T16:15:04.453Z,66.70
2018-05-31T16:18:07.744Z,66.60
2018-05-31T16:21:10.836Z,66.70
2018-05-31T16:24:13.909Z,66.30
2018-05-31T16:27:16.979Z,66.10
2018-05-31T16:30:20.146Z,67.50
2018-05-31T16:33:23.216Z,66.70
2018-05-31T16:36:26.303Z,67.50
2018-05-31T16:39:29.474Z,67.30
2018-05-31T16:42:32.562Z,67.20
2018-05-31T16:45:35.636Z,67.30
2018-05-31T16:48:39.558Z,68.50
2018-05-31T16:51:42.666Z,67.70
2018-05-31T16:54:45.732Z,67.60
2018-05-31T16:57:49.645Z,68.10
2018-05-31T17:00:52.693Z,68.20
2018-05-31T17:03:56.558Z,68.50
2018-05-31T17:06:59.672Z,68.40
2018-05-31T17:10:02.743Z,68.50
2018-05-31T17:13:05.858Z,69.50
2018-05-31T17:16:08.936Z,68.70
2018-05-31T17:19:12.032Z,69.40
2018-05-31T17:22:15.132Z,69.40
2018-05-31T17:25:18.275Z,68.10
2018-05-31T17:28:21.346Z,67.50
2018-05-31T17:31:25.216Z,68.90
2018-05-31T17:34:28.321Z,68.80
2018-05-31T17:37:31.394Z,67.80
2018-05-31T17:40:34.497Z,67.40
2018-05-31T17:43:37.577Z,68.50
2018-05-31T17:46:40.675Z,67.80
2018-05-31T17:49:43.765Z,68.20
2018-05-31T17:52:46.862Z,67.70
2018-05-31T17:55:49.981Z,68.00
2018-05-31T17:58:53.044Z,68.20
2018-05-31T18:01:56.138Z,68.10
2018-05-31T18:05:00.748Z,69.30
2018-05-31T18:08:03.815Z,69.30
2018-05-31T18:11:06.932Z,69.50
2018-05-31T18:14:10.011Z,69.50
2018-05-31T18:17:13.127Z,70.20
2018-05-31T18:20:16.203Z,69.80
2018-05-31T18:23:19.424Z,70.00
2018-05-31T18:26:22.558Z,70.40
2018-05-31T18:29:26.525Z,71.10
2018-05-31T18:32:29.594Z,70.30
2018-05-31T18:35:32.808Z,70.90
2018-05-31T18:38:35.874Z,71.80
2018-05-31T18:41:38.946Z,71.60
2018-05-31T18:44:42.832Z,72.80
2018-05-31T18:47:45.982Z,72.20
2018-05-31T18:50:49.134Z,72.80
2018-05-31T18:53:52.484Z,72.80
2018-05-31T18:56:55.687Z,72.90
2018-05-31T18:59:58.860Z,73.80
2018-05-31T19:03:01.937Z,73.70
2018-05-31T19:06:05.811Z,73.90
2018-05-31T19:09:08.911Z,73.90
2018-05-31T19:12:11.993Z,74.20
2018-05-31T19:15:21.633Z,74.20
2018-05-31T19:18:23.868Z,74.50
2018-05-31T19:21:26.977Z,74.70
2018-05-31T19:24:35.826Z,74.80
2018-05-31T19:27:39.639Z,75.50
2018-05-31T19:30:48.478Z,75.50
2018-05-31T19:33:52.324Z,75.80
2018-05-31T19:37:01.012Z,75.80
2018-05-31T19:40:04.856Z,76.30
2018-05-31T19:43:13.583Z,76.30
2018-05-31T19:46:16.668Z,76.00
2018-05-31T19:49:19.774Z,76.20
2018-05-31T19:52:28.540Z,76.00
2018-05-31T19:55:32.535Z,76.50
2018-05-31T19:58:41.344Z,76.40
2018-05-31T20:01:50.099Z,76.50
2018-05-31T20:04:53.188Z,76.90
2018-05-31T20:07:57.046Z,77.80
2018-05-31T20:11:00.122Z,77.70
2018-05-31T20:14:03.229Z,77.60
2018-05-31T20:17:06.315Z,77.60
2018-05-31T20:20:09.420Z,77.80
2018-05-31T20:23:12.519Z,78.60
2018-05-31T20:26:15.603Z,78.20
2018-05-31T20:29:18.680Z,78.50
2018-05-31T20:32:21.769Z,78.80
2018-05-31T20:35:24.874Z,79.20
2018-05-31T20:38:27.996Z,79.80
2018-05-31T20:41:31.065Z,80.00
2018-05-31T20:44:34.979Z,80.20
2018-05-31T20:47:38.848Z,80.70
2018-05-31T20:50:41.949Z,80.70
2018-05-31T20:53:45.047Z,81.30
2018-05-31T20:56:48.112Z,80.70
2018-05-31T20:59:51.250Z,80.80
2018-05-31T21:02:54.293Z,80.80
2018-05-31T21:05:57.402Z,81.00
2018-05-31T21:09:00.479Z,80.70
2018-05-31T21:12:03.600Z,80.60
2018-05-31T21:15:06.675Z,80.70
2018-05-31T21:18:09.887Z,80.70
2018-05-31T21:21:13.729Z,80.60
2018-05-31T21:24:16.893Z,80.40
2018-05-31T21:27:19.982Z,81.00
2018-05-31T21:30:23.070Z,81.20
2018-05-31T21:33:26.890Z,82.20
2018-05-31T21:36:29.991Z,82.10
2018-05-31T21:39:33.055Z,82.50
2018-05-31T21:42:36.973Z,83.80
2018-05-31T21:45:40.027Z,83.70
2018-05-31T21:48:43.124Z,84.40
2018-05-31T21:51:46.233Z,85.30
2018-05-31T21:54:49.329Z,85.90
2018-05-31T21:57:53.183Z,87.30
2018-05-31T22:00:56.286Z,87.30
2018-05-31T22:03:59.384Z,88.00
2018-05-31T22:07:02.466Z,88.50
2018-05-31T22:10:05.570Z,88.90
2018-05-31T22:13:08.659Z,89.80
2018-05-31T22:16:12.555Z,90.10
2018-05-31T22:19:15.672Z,90.20
2018-05-31T22:22:18.741Z,90.40
2018-05-31T22:25:21.968Z,90.70
2018-05-31T22:28:25.067Z,90.90
2018-05-31T22:31:28.167Z,90.80
2018-05-31T22:34:31.241Z,90.70
2018-05-31T22:37:34.418Z,91.00
2018-05-31T22:40:37.665Z,91.30
2018-05-31T22:43:40.804Z,92.00
2018-05-31T22:46:43.858Z,91.30
2018-05-31T22:49:46.960Z,91.40
2018-05-31T22:52:50.028Z,91.60
2018-05-31T22:55:53.129Z,91.30
2018-05-31T22:58:56.190Z,91.30
2018-05-31T23:01:59.296Z,91.30
2018-05-31T23:05:02.381Z,91.70
2018-05-31T23:08:05.598Z,91.50
2018-05-31T23:11:08.659Z,91.50
2018-05-31T23:14:11.761Z,91.40
2018-05-31T23:17:14.826Z,91.70
2018-05-31T23:20:17.919Z,91.90
2018-05-31T23:23:21.180Z,91.80
2018-05-31T23:26:24.286Z,92.10
2018-05-31T23:29:27.355Z,92.20
2018-05-31T23:32:30.457Z,92.40
2018-05-31T23:35:33.533Z,92.40
2018-05-31T23:38:37.390Z,92.70
2018-05-31T23:41:40.472Z,92.70
2018-05-31T23:44:43.682Z,92.90
2018-05-31T23:47:46.755Z,93.00
2018-05-31T23:50:49.895Z,93.20
2018-05-31T23:53:52.935Z,93.30
2018-05-31T23:56:56.042Z,93.40
2018-05-31T23:59:59.104Z,93.60
